Time;durP1;ratioP1;P1;durP2;ratioP2;P2;SDS_P1;SDS_P2;PMS_P1;PMS_P2;Temp;Humidity;BMP_temperature;BMP_pressure;BME280_temperature;BME280_humidity;BME280_pressure;Samples;Min_cycle;Max_cycle;Signal;HPM_P1;HPM_P2
2021/11/15 00:00:53;;;;;;;17.53;11.57;;;8.40;99.90;;;;;;5110947;28;20724;-81
2021/11/15 00:03:23;;;;;;;19.50;11.93;;;8.40;99.90;;;;;;5110841;28;21053;-81
2021/11/15 00:05:50;;;;;;;18.63;11.67;;;;;;;;;;5111745;28;20656;-81
2021/11/15 00:08:18;;;;;;;15.37;10.33;;;;;;;;;;5112065;28;20663;-82
2021/11/15 00:10:45;;;;;;;21.80;11.90;;;;;;;;;;5111117;28;20651;-81
2021/11/15 00:13:12;;;;;;;19.70;11.70;;;;;;;;;;5111104;28;21176;-81
2021/11/15 00:15:39;;;;;;;18.00;10.70;;;;;;;;;;5110426;28;21149;-81
2021/11/15 00:18:07;;;;;;;19.57;10.90;;;;;;;;;;5111670;28;20739;-81
2021/11/15 00:20:37;;;;;;;18.43;11.73;;;8.20;99.90;;;;;;5111111;28;20731;-80
2021/11/15 00:23:05;;;;;;;22.97;11.07;;;8.10;99.90;;;;;;5111479;28;20643;-81
2021/11/15 00:25:33;;;;;;;20.30;12.77;;;;;;;;;;5110671;28;20620;-80
2021/11/15 00:28:00;;;;;;;18.10;11.15;;;;;;;;;;5111445;28;20648;-81
2021/11/15 00:30:27;;;;;;;20.20;11.37;;;;;;;;;;5110533;28;20317;-81
2021/11/15 00:32:55;;;;;;;16.70;11.10;;;;;;;;;;5111181;28;21246;-81
2021/11/15 00:35:22;;;;;;;25.37;13.17;;;;;;;;;;5111310;28;20683;-81
2021/11/15 00:37:50;;;;;;;20.03;13.03;;;8.20;99.90;;;;;;5111311;28;21033;-81
2021/11/15 00:40:19;;;;;;;15.90;10.53;;;8.10;99.90;;;;;;5110123;28;20723;-81
2021/11/15 00:42:46;;;;;;;18.40;11.20;;;;;;;;;;5111396;28;21189;-81
2021/11/15 00:45:14;;;;;;;15.30;10.07;;;;;;;;;;5111299;28;20240;-82
2021/11/15 00:47:41;;;;;;;14.60;10.03;;;;;;;;;;5111001;28;20624;-81
2021/11/15 00:50:11;;;;;;;16.88;10.55;;;8.20;99.90;;;;;;5110370;28;20746;-80
2021/11/15 00:52:38;;;;;;;20.33;10.97;;;;;;;;;;5110680;28;20339;-81
2021/11/15 00:55:07;;;;;;;17.40;11.20;;;8.10;99.90;;;;;;5110954;28;20652;-81
2021/11/15 00:57:34;;;;;;;15.90;11.30;;;;;;;;;;5110870;28;20723;-81
2021/11/15 01:00:02;;;;;;;15.43;11.37;;;;;;;;;;5110826;28;20606;-81
2021/11/15 01:02:29;;;;;;;14.75;10.57;;;;;;;;;;5104804;28;20733;-81
2021/11/15 01:04:56;;;;;;;16.10;11.07;;;;;;;;;;5110393;28;20755;-81
2021/11/15 01:07:23;;;;;;;20.23;12.05;;;;;;;;;;5108985;28;20734;-81
2021/11/15 01:09:50;;;;;;;15.82;9.90;;;;;;;;;;5109871;28;20258;-80
2021/11/15 01:12:19;;;;;;;15.87;11.20;;;;;;;;;;5110171;28;20248;-81
2021/11/15 01:14:46;;;;;;;19.17;10.75;;;;;;;;;;5109429;28;20885;-81
2021/11/15 01:17:13;;;;;;;18.13;11.30;;;;;;;;;;5110869;28;20202;-81
2021/11/15 01:19:40;;;;;;;17.25;10.55;;;;;;;;;;5110547;28;20656;-80
2021/11/15 01:22:08;;;;;;;14.75;9.52;;;;;;;;;;5109960;28;20209;-81
2021/11/15 01:24:35;;;;;;;15.13;10.90;;;;;;;;;;5110861;28;20309;-81
2021/11/15 01:27:02;;;;;;;12.13;8.70;;;;;;;;;;5110427;28;20723;-81
2021/11/15 01:29:31;;;;;;;15.20;11.00;;;;;;;;;;5110541;28;20314;-82
2021/11/15 01:32:00;;;;;;;17.77;10.70;;;;;;;;;;5109750;28;20612;-81
2021/11/15 01:34:29;;;;;;;21.65;11.27;;;8.00;99.90;;;;;;5109934;28;20198;-80
2021/11/15 01:36:57;;;;;;;19.88;10.15;;;;;;;;;;5110633;28;20202;-82
2021/11/15 01:39:24;;;;;;;17.73;10.10;;;;;;;;;;5110336;28;20198;-81
2021/11/15 01:41:52;;;;;;;13.40;11.40;;;;;;;;;;5109659;28;20195;-80
2021/11/15 01:44:19;;;;;;;14.85;9.35;;;;;;;;;;5110358;28;20198;-82
2021/11/15 01:46:48;;;;;;;14.80;9.97;;;7.90;99.90;;;;;;5110076;28;20663;-80
2021/11/15 01:49:16;;;;;;;15.20;10.10;;;;;;;;;;5110305;28;20706;-81
2021/11/15 01:51:43;;;;;;;15.15;10.10;;;;;;;;;;5110248;28;20199;-81
2021/11/15 01:54:10;;;;;;;14.47;8.13;;;;;;;;;;5110505;28;20286;-80
2021/11/15 01:56:37;;;;;;;12.40;8.73;;;;;;;;;;5110330;28;21024;-80
2021/11/15 01:59:06;;;;;;;13.50;9.33;;;7.90;99.90;;;;;;5110007;28;20623;-81
2021/11/15 02:01:33;;;;;;;15.33;9.60;;;;;;;;;;5108403;28;20659;-81
2021/11/15 02:04:03;;;;;;;16.08;8.65;;;;;;;;;;5110376;28;20616;-82
2021/11/15 02:06:30;;;;;;;12.97;8.83;;;;;;;;;;5110420;28;20890;-81
2021/11/15 02:08:57;;;;;;;11.70;7.47;;;;;;;;;;5110076;28;20608;-81
2021/11/15 02:11:27;;;;;;;16.42;10.10;;;;;;;;;;5109582;28;20221;-81
2021/11/15 02:13:55;;;;;;;12.77;7.72;;;;;;;;;;5109510;28;20229;-82
2021/11/15 02:16:23;;;;;;;9.47;7.67;;;;;;;;;;5108815;28;20203;-82
2021/11/15 02:18:50;;;;;;;13.63;8.48;;;;;;;;;;5110194;28;20655;-82
2021/11/15 02:21:19;;;;;;;13.53;8.70;;;;;;;;;;5112799;28;20203;-82
2021/11/15 02:23:46;;;;;;;9.88;8.23;;;;;;;;;;5113803;28;20615;-82
2021/11/15 02:26:16;;;;;;;9.95;7.38;;;7.70;99.90;;;;;;5113939;28;20222;-80
2021/11/15 02:28:45;;;;;;;11.50;7.50;;;;;;;;;;5113468;28;20222;-81
2021/11/15 02:31:14;;;;;;;10.18;7.97;;;7.80;99.90;;;;;;5113086;28;20226;-82
2021/11/15 02:33:42;;;;;;;12.07;6.95;;;7.80;99.90;;;;;;5113726;28;20259;-82
2021/11/15 02:36:10;;;;;;;8.25;6.28;;;7.70;99.90;;;;;;5113696;28;20298;-81
2021/11/15 02:38:39;;;;;;;6.60;5.50;;;7.60;99.90;;;;;;5113440;28;20198;-81
2021/11/15 02:41:06;;;;;;;9.02;6.85;;;;;;;;;;5112262;28;20679;-81
2021/11/15 02:43:34;;;;;;;9.48;5.90;;;7.60;99.90;;;;;;5113369;28;20626;-80
2021/11/15 02:46:01;;;;;;;9.57;6.30;;;;;;;;;;5113289;28;20648;-81
2021/11/15 02:48:29;;;;;;;8.88;6.93;;;7.80;99.90;;;;;;5113002;28;21219;-82
2021/11/15 02:50:57;;;;;;;11.20;6.97;;;;;;;;;;5112724;28;20661;-81
2021/11/15 02:53:24;;;;;;;9.55;6.57;;;;;;;;;;5112927;28;20212;-80
2021/11/15 02:55:53;;;;;;;8.18;5.93;;;;;;;;;;5113113;28;20840;-81
2021/11/15 02:58:20;;;;;;;9.88;6.63;;;;;;;;;;5113066;28;20210;-80
2021/11/15 03:00:51;;;;;;;12.20;7.20;;;7.60;99.90;;;;;;5112626;28;20203;-81
2021/11/15 03:03:19;;;;;;;9.90;6.53;;;;;;;;;;5112910;28;20289;-81
2021/11/15 03:05:49;;;;;;;7.82;6.05;;;7.70;99.90;;;;;;5113303;28;20229;-81
2021/11/15 03:08:17;;;;;;;10.32;6.90;;;7.60;99.90;;;;;;5112630;28;20205;-81
2021/11/15 03:10:46;;;;;;;7.65;5.90;;;7.60;99.90;;;;;;5112594;28;20341;-82
2021/11/15 03:13:17;;;;;;;10.20;6.43;;;7.50;99.90;;;;;;5113018;28;20243;-81
2021/11/15 03:15:46;;;;;;;12.20;7.03;;;7.60;99.90;;;;;;5111606;28;20655;-81
2021/11/15 03:18:15;;;;;;;9.20;6.88;;;7.60;99.90;;;;;;5112658;28;20281;-82
2021/11/15 03:20:44;;;;;;;9.75;6.78;;;7.60;99.90;;;;;;5111718;28;20273;-82
2021/11/15 03:23:13;;;;;;;10.77;7.50;;;7.50;99.90;;;;;;5112838;28;20244;-82
2021/11/15 03:25:41;;;;;;;11.50;8.85;;;;;;;;;;5112569;28;20193;-81
2021/11/15 03:28:10;;;;;;;14.20;7.45;;;7.50;99.90;;;;;;5112481;28;20233;-82
2021/11/15 03:30:39;;;;;;;12.05;7.88;;;7.60;99.90;;;;;;5111777;28;20217;-81
2021/11/15 03:33:07;;;;;;;9.88;7.32;;;7.50;99.90;;;;;;5102755;28;20195;-81
2021/11/15 03:35:34;;;;;;;12.45;8.02;;;;;;;;;;5092275;28;20203;-82
2021/11/15 03:38:01;;;;;;;12.68;7.72;;;;;;;;;;5091951;28;20700;-82
2021/11/15 03:40:29;;;;;;;13.30;7.68;;;;;;;;;;5092231;28;20238;-80
2021/11/15 03:43:00;;;;;;;8.63;6.45;;;7.50;99.90;;;;;;5112627;28;20226;-80
2021/11/15 03:45:28;;;;;;;9.25;7.00;;;7.50;99.90;;;;;;5112300;28;20286;-82
2021/11/15 03:47:57;;;;;;;15.40;7.90;;;7.50;99.90;;;;;;5111889;28;20693;-81
2021/11/15 03:50:28;;;;;;;11.25;7.28;;;7.50;99.90;;;;;;5111423;28;20733;-81
2021/11/15 03:52:57;;;;;;;12.32;8.48;;;7.50;99.90;;;;;;5112271;28;20198;-81
2021/11/15 03:55:25;;;;;;;12.68;8.73;;;7.50;99.90;;;;;;5111805;28;20201;-82
2021/11/15 03:57:53;;;;;;;13.07;8.30;;;7.50;99.90;;;;;;5112082;28;20195;-82
2021/11/15 04:00:23;;;;;;;11.55;7.93;;;7.40;99.90;;;;;;5110662;28;20206;-81
2021/11/15 04:02:53;;;;;;;12.18;7.55;;;7.50;99.90;;;;;;5111684;28;20206;-82
2021/11/15 04:05:28;;;;;;;11.57;7.60;;;7.50;99.90;;;;;;5111952;28;20576;-81
2021/11/15 04:07:56;;;;;;;10.75;8.18;;;7.50;99.90;;;;;;5112067;28;20286;-82
2021/11/15 04:10:25;;;;;;;11.07;7.18;;;7.40;99.90;;;;;;5111121;28;20624;-81
2021/11/15 04:12:54;;;;;;;13.73;9.00;;;7.50;99.90;;;;;;5111420;28;20202;-81
2021/11/15 04:15:21;;;;;;;10.82;7.47;;;;;;;;;;5110173;28;20289;-82
2021/11/15 04:17:49;;;;;;;16.50;8.50;;;;;;;;;;5112210;28;20222;-82
2021/11/15 04:20:18;;;;;;;13.10;8.90;;;;;;;;;;5111123;28;20205;-80
2021/11/15 04:22:47;;;;;;;12.13;7.30;;;;;;;;;;5111587;28;20237;-81
2021/11/15 04:25:14;;;;;;;11.82;7.70;;;;;;;;;;5110692;28;20263;-82
2021/11/15 04:27:41;;;;;;;13.27;9.40;;;;;;;;;;5111448;28;20210;-81
2021/11/15 04:30:12;;;;;;;11.45;7.03;;;7.60;99.90;;;;;;5110488;28;20309;-81
2021/11/15 04:32:39;;;;;;;14.80;8.27;;;7.60;99.90;;;;;;5111291;28;20281;-81
2021/11/15 04:35:09;;;;;;;10.23;7.28;;;7.50;99.90;;;;;;5111217;28;20277;-81
2021/11/15 04:37:36;;;;;;;12.20;8.40;;;;;;;;;;5111175;28;20247;-80
2021/11/15 04:40:05;;;;;;;12.93;8.27;;;;;;;;;;5111157;28;20321;-82
2021/11/15 04:42:33;;;;;;;11.93;7.30;;;;;;;;;;5110951;28;20197;-81
2021/11/15 04:45:00;;;;;;;12.13;8.27;;;;;;;;;;5110509;28;20198;-81
2021/11/15 04:47:27;;;;;;;16.73;7.40;;;;;;;;;;5110951;28;20452;-81
2021/11/15 04:49:55;;;;;;;11.40;9.65;;;;;;;;;;5110989;28;20218;-82
2021/11/15 04:52:22;;;;;;;12.00;8.13;;;;;;;;;;5109962;28;20281;-81
2021/11/15 04:54:49;;;;;;;13.35;7.82;;;;;;;;;;5111116;28;20281;-82
2021/11/15 04:57:18;;;;;;;13.43;8.10;;;;;;;;;;5111065;28;20306;-82
2021/11/15 04:59:47;;;;;;;10.55;7.65;;;;;;;;;;5110673;28;20199;-81
2021/11/15 05:02:15;;;;;;;10.50;8.27;;;7.30;99.90;;;;;;5109939;28;20214;-81
2021/11/15 05:04:42;;;;;;;12.02;8.27;;;;;;;;;;5110674;28;20219;-82
2021/11/15 05:07:09;;;;;;;11.77;7.38;;;;;;;;;;5110725;28;20210;-81
2021/11/15 05:09:37;;;;;;;11.70;8.25;;;;;;;;;;5110773;28;20198;-81
2021/11/15 05:12:04;;;;;;;11.32;8.65;;;;;;;;;;5110160;28;20585;-82
2021/11/15 05:14:33;;;;;;;18.83;10.35;;;;;;;;;;5109400;28;20263;-81
2021/11/15 05:17:00;;;;;;;13.18;8.60;;;;;;;;;;5110631;28;20234;-82
2021/11/15 05:19:28;;;;;;;13.35;8.10;;;;;;;;;;5110787;28;20206;-82
2021/11/15 05:21:55;;;;;;;13.45;8.27;;;;;;;;;;5110310;28;20295;-82
2021/11/15 05:24:22;;;;;;;15.98;9.05;;;;;;;;;;5110670;28;20190;-82
2021/11/15 05:26:49;;;;;;;12.05;8.20;;;;;;;;;;5110651;28;20260;-82
2021/11/15 05:29:16;;;;;;;18.75;10.13;;;;;;;;;;5110572;28;20539;-81
2021/11/15 05:31:45;;;;;;;15.13;8.48;;;;;;;;;;5109592;28;20265;-82
2021/11/15 05:34:12;;;;;;;11.98;8.32;;;;;;;;;;5092466;28;20282;-82
2021/11/15 05:36:40;;;;;;;14.25;9.40;;;;;;;;;;5090054;28;20207;-82
2021/11/15 05:39:07;;;;;;;15.25;9.93;;;;;;;;;;5090255;28;20230;-82
2021/11/15 05:41:34;;;;;;;10.35;7.35;;;;;;;;;;5099605;28;20222;-82
2021/11/15 05:44:01;;;;;;;15.93;8.73;;;;;;;;;;5110951;28;20202;-82
2021/11/15 05:46:30;;;;;;;13.32;9.23;;;7.20;99.90;;;;;;5109678;28;20234;-82
2021/11/15 05:48:59;;;;;;;15.52;9.90;;;;;;;;;;5110141;28;20218;-81
2021/11/15 05:51:26;;;;;;;10.88;7.50;;;;;;;;;;5109784;28;20234;-82
2021/11/15 05:53:53;;;;;;;15.25;9.15;;;;;;;;;;5110843;28;20293;-82
2021/11/15 05:56:21;;;;;;;12.75;8.70;;;7.20;99.90;;;;;;5114174;28;20206;-82
2021/11/15 05:58:48;;;;;;;14.13;8.07;;;;;;;;;;5114399;28;20279;-82
2021/11/15 06:01:15;;;;;;;15.23;9.23;;;;;;;;;;5113346;28;20241;-82
2021/11/15 06:03:42;;;;;;;10.82;8.13;;;;;;;;;;5114398;28;20615;-82
2021/11/15 06:06:11;;;;;;;14.45;8.88;;;;;;;;;;5114038;28;20240;-82
2021/11/15 06:08:38;;;;;;;14.40;9.68;;;;;;;;;;5114150;28;20786;-82
2021/11/15 06:11:05;;;;;;;14.77;8.40;;;;;;;;;;5113528;28;20296;-81
2021/11/15 06:13:33;;;;;;;12.68;7.82;;;;;;;;;;5113484;28;20218;-81
2021/11/15 06:16:00;;;;;;;10.43;8.23;;;;;;;;;;5112563;28;20233;-82
2021/11/15 06:18:27;;;;;;;13.18;8.57;;;;;;;;;;5114022;28;20206;-81
2021/11/15 06:20:55;;;;;;;13.40;8.20;;;;;;;;;;5113234;28;20663;-82
2021/11/15 06:23:23;;;;;;;12.13;8.85;;;;;;;;;;5113902;28;20243;-82
2021/11/15 06:25:50;;;;;;;11.75;7.82;;;;;;;;;;5113741;28;20206;-82
2021/11/15 06:28:17;;;;;;;13.25;8.18;;;;;;;;;;5113485;28;20198;-82
2021/11/15 06:30:45;;;;;;;12.43;8.43;;;;;;;;;;5113335;28;20313;-82
2021/11/15 06:33:12;;;;;;;13.35;9.13;;;;;;;;;;5113821;28;20229;-82
2021/11/15 06:35:39;;;;;;;12.13;7.63;;;;;;;;;;5113858;28;20199;-82
2021/11/15 06:38:06;;;;;;;11.82;8.10;;;;;;;;;;5113593;28;20598;-82
2021/11/15 06:40:35;;;;;;;13.13;9.05;;;;;;;;;;5112410;28;20278;-81
2021/11/15 06:43:02;;;;;;;17.55;8.05;;;;;;;;;;5113417;28;20655;-82
2021/11/15 06:45:30;;;;;;;14.02;8.98;;;;;;;;;;5113609;28;20718;-81
2021/11/15 06:47:57;;;;;;;10.27;7.95;;;;;;;;;;5113198;28;20206;-82
2021/11/15 06:50:24;;;;;;;11.95;8.00;;;;;;;;;;5112329;28;20807;-81
2021/11/15 06:52:52;;;;;;;15.07;9.05;;;;;;;;;;5113394;28;20294;-82
2021/11/15 06:55:21;;;;;;;10.75;8.20;;;7.20;99.90;;;;;;5112628;28;20202;-82
2021/11/15 06:57:50;;;;;;;18.52;9.88;;;;;;;;;;5113337;28;20202;-82
2021/11/15 07:00:21;;;;;;;13.73;8.73;;;7.20;99.90;;;;;;5112744;28;20226;-82
2021/11/15 07:02:49;;;;;;;13.85;8.85;;;7.20;99.90;;;;;;5113206;28;20288;-82
2021/11/15 07:05:16;;;;;;;11.27;8.98;;;;;;;;;;5113131;28;20268;-82
2021/11/15 07:07:44;;;;;;;13.77;8.88;;;7.10;99.90;;;;;;5111551;28;20625;-82
2021/11/15 07:10:12;;;;;;;13.57;9.40;;;6.90;99.90;;;;;;5112726;28;20289;-82
2021/11/15 07:12:40;;;;;;;17.60;11.18;;;;;;;;;;5112760;28;20324;-82
2021/11/15 07:15:11;;;;;;;12.60;8.07;;;7.20;99.90;;;;;;5111507;28;20226;-81
2021/11/15 07:17:38;;;;;;;14.38;9.13;;;;;;;;;;5112779;28;20236;-81
2021/11/15 07:20:06;;;;;;;14.07;8.82;;;;;;;;;;5111876;28;20253;-81
2021/11/15 07:22:33;;;;;;;16.25;9.73;;;;;;;;;;5112600;28;20206;-82
2021/11/15 07:25:01;;;;;;;16.30;8.40;;;;;;;;;;5112789;28;20286;-81
2021/11/15 07:27:28;;;;;;;13.68;8.75;;;;;;;;;;5112632;28;20285;-82
2021/11/15 07:29:55;;;;;;;16.63;9.77;;;;;;;;;;5112651;28;20239;-82
2021/11/15 07:32:24;;;;;;;15.18;8.85;;;;;;;;;;5111767;28;20210;-82
2021/11/15 07:34:52;;;;;;;14.27;8.45;;;;;;;;;;5112031;27;20202;-81
2021/11/15 07:37:19;;;;;;;15.20;8.48;;;;;;;;;;5112761;28;20198;-82
2021/11/15 07:39:47;;;;;;;14.07;9.32;;;;;;;;;;5112659;28;20245;-81
2021/11/15 07:42:16;;;;;;;14.73;9.30;;;9.70;99.90;;;;;;5111989;28;20630;-82
2021/11/15 07:44:43;;;;;;;15.98;8.82;;;7.00;99.90;;;;;;5112410;28;20203;-81
2021/11/15 07:47:14;;;;;;;13.55;8.05;;;7.20;99.90;;;;;;5111862;28;20237;-81
2021/11/15 07:49:44;;;;;;;11.55;8.85;;;7.20;99.90;;;;;;5112302;28;20260;-81
2021/11/15 07:52:11;;;;;;;12.32;9.60;;;;;;;;;;5111380;28;20253;-82
2021/11/15 07:54:39;;;;;;;11.57;8.10;;;;;;;;;;5112192;28;20228;-81
2021/11/15 07:57:08;;;;;;;16.52;9.82;;;;;;;;;;5112011;28;20197;-82
2021/11/15 07:59:36;;;;;;;12.48;8.90;;;;;;;;;;5112021;28;20201;-82
2021/11/15 08:02:03;;;;;;;11.65;8.52;;;;;;;;;;5110778;28;20272;-82
2021/11/15 08:04:31;;;;;;;12.50;8.65;;;;;;;;;;5111967;28;20230;-81
2021/11/15 08:07:00;;;;;;;13.30;9.07;;;;;;;;;;5111702;28;20714;-81
2021/11/15 08:09:27;;;;;;;16.73;10.10;;;;;;;;;;5111849;28;20198;-82
2021/11/15 08:12:02;;;;;;;16.20;9.30;;;7.20;99.90;;;;;;5111180;28;20297;-83
2021/11/15 08:14:29;;;;;;;13.60;8.40;;;;;;;;;;5110677;28;20667;-82
2021/11/15 08:16:57;;;;;;;13.38;8.85;;;;;;;;;;5111947;28;20202;-83
2021/11/15 08:19:24;;;;;;;12.55;9.05;;;;;;;;;;5111562;28;20646;-82
2021/11/15 08:21:52;;;;;;;12.32;10.13;;;;;;;;;;5110776;28;20263;-82
2021/11/15 08:25:10;;;;;;;14.18;9.25;;;7.10;99.90;;;;;;5111275;28;20610;-83
2021/11/15 08:27:38;;;;;;;11.30;8.57;;;;;;;;;;5111360;28;20714;-82
2021/11/15 08:30:06;;;;;;;18.70;9.10;;;7.20;99.90;;;;;;5111118;28;20199;-81
2021/11/15 08:32:33;;;;;;;12.93;9.45;;;;;;;;;;5113309;27;20225;-82
2021/11/15 08:35:02;;;;;;;11.98;7.18;;;;;;;;;;5127314;27;20609;-82
2021/11/15 08:37:30;;;;;;;13.00;8.07;;;;;;;;;;5119672;27;20197;-82
2021/11/15 08:39:58;;;;;;;17.90;9.70;;;;;;;;;;5119466;27;20620;-83
2021/11/15 08:42:26;;;;;;;13.93;8.80;;;;;;;;;;5120263;27;20239;-83
2021/11/15 08:44:56;;;;;;;14.75;8.15;;;;;;;;;;5111560;28;20309;-83
2021/11/15 08:47:24;;;;;;;18.00;10.30;;;;;;;;;;5111146;28;20577;-84
2021/11/15 08:49:52;;;;;;;12.07;8.52;;;7.40;99.90;;;;;;5111013;28;20260;-84
2021/11/15 08:52:19;;;;;;;15.40;9.40;;;;;;;;;;5111347;28;20229;-83
2021/11/15 08:54:51;;;;;;;13.23;8.90;;;;;;;;;;5111285;28;20213;-84
2021/11/15 08:57:20;;;;;;;12.77;9.55;;;;;;;;;;5111197;28;20680;-84
2021/11/15 08:59:47;;;;;;;14.00;8.38;;;;;;;;;;5111196;28;20205;-84
2021/11/15 09:02:15;;;;;;;13.43;8.70;;;;;;;;;;5111060;27;20260;-83
2021/11/15 09:04:43;;;;;;;12.70;8.95;;;;;;;;;;5104198;27;20194;-83
2021/11/15 09:07:10;;;;;;;15.60;10.40;;;;;;;;;;5090923;28;20199;-83
2021/11/15 09:09:38;;;;;;;13.25;10.05;;;;;;;;;;5090826;28;21020;-83
2021/11/15 09:12:08;;;;;;;16.00;9.40;;;;;;;;;;5090542;28;20219;-84
2021/11/15 09:14:37;;;;;;;11.30;9.18;;;;;;;;;;5090462;28;20207;-84
2021/11/15 09:17:06;;;;;;;14.38;9.30;;;7.40;99.90;;;;;;5090497;28;20215;-83
2021/11/15 09:19:34;;;;;;;13.07;9.55;;;;;;;;;;5090818;28;20199;-83
2021/11/15 09:22:03;;;;;;;12.65;9.50;;;7.40;99.90;;;;;;5090612;28;20206;-84
2021/11/15 09:24:32;;;;;;;13.20;9.37;;;7.40;99.90;;;;;;5090554;28;20202;-84
2021/11/15 09:27:01;;;;;;;13.05;9.30;;;7.30;99.90;;;;;;5090467;28;20625;-84
2021/11/15 09:29:29;;;;;;;12.68;9.75;;;;;;;;;;5090555;28;20290;-83
2021/11/15 09:31:58;;;;;;;13.38;9.75;;;;;;;;;;5094513;28;20716;-84
2021/11/15 09:34:26;;;;;;;14.23;10.50;;;;;;;;;;5114623;28;20195;-84
2021/11/15 09:36:54;;;;;;;19.00;11.15;;;;;;;;;;5114891;28;20690;-84
2021/11/15 09:39:23;;;;;;;20.25;11.45;;;;;;;;;;5115020;28;20218;-84
2021/11/15 09:41:50;;;;;;;19.27;12.52;;;;;;;;;;5114104;28;20225;-84
2021/11/15 09:44:18;;;;;;;21.20;12.65;;;;;;;;;;5114933;28;20198;-83
2021/11/15 09:46:47;;;;;;;21.30;12.57;;;;;;;;;;5114894;28;20624;-83
2021/11/15 09:49:16;;;;;;;18.10;12.18;;;;;;;;;;5106978;28;20263;-83
2021/11/15 09:51:46;;;;;;;21.80;12.67;;;7.30;99.90;;;;;;5113065;28;20291;-84
2021/11/15 09:54:15;;;;;;;21.23;11.90;;;7.30;99.90;;;;;;5114410;28;20624;-83
2021/11/15 09:56:43;;;;;;;19.87;11.60;;;;;;;;;;5114360;28;21152;-84
2021/11/15 09:59:11;;;;;;;18.43;11.90;;;7.40;99.90;;;;;;5114612;28;21169;-85
2021/11/15 10:01:39;;;;;;;20.92;11.70;;;;;;;;;;5114460;28;20616;-84
2021/11/15 10:04:06;;;;;;;16.80;11.83;;;;;;;;;;5114532;28;20198;-84
2021/11/15 10:06:35;;;;;;;20.40;12.10;;;;;;;;;;5114378;27;20624;-84
2021/11/15 10:09:04;;;;;;;20.65;12.88;;;7.40;99.90;;;;;;5113975;28;20688;-83
2021/11/15 10:11:40;;;;;;;22.77;13.13;;;7.30;99.90;;;;;;5114110;28;20206;-83
2021/11/15 10:14:07;;;;;;;19.80;13.13;;;;;;;;;;5114296;28;20243;-84
2021/11/15 10:16:35;;;;;;;17.73;12.25;;;;;;;;;;5113205;28;20203;-84
2021/11/15 10:19:04;;;;;;;19.60;11.90;;;7.50;99.90;;;;;;5113990;28;20226;-84
2021/11/15 10:21:35;;;;;;;20.65;13.38;;;7.50;99.90;;;;;;5113337;28;20634;-84
2021/11/15 10:24:05;;;;;;;20.17;13.10;;;7.50;99.90;;;;;;5114346;28;20198;-84
2021/11/15 10:26:36;;;;;;;18.30;12.30;;;7.40;99.90;;;;;;5114062;28;20198;-84
2021/11/15 10:29:08;;;;;;;20.08;12.35;;;7.40;99.90;;;;;;5114245;28;20198;-84
2021/11/15 10:31:49;;;;;;;22.67;13.07;;;7.50;99.90;;;;;;5113668;28;20202;-84
2021/11/15 10:34:22;;;;;;;20.60;12.77;;;7.50;99.90;;;;;;5114109;28;20225;-83
2021/11/15 10:37:09;;;;;;;18.27;10.77;;;7.50;99.90;;;;;;5113986;28;20616;-84
2021/11/15 10:39:43;;;;;;;16.17;11.20;;;7.50;99.90;;;;;;5114012;27;20624;-84
2021/11/15 10:42:13;;;;;;;16.60;10.23;;;;;;;;;;5113314;28;20631;-84
2021/11/15 10:44:46;;;;;;;16.73;12.43;;;;;;;;;;5113818;28;20631;-84
2021/11/15 10:47:13;;;;;;;15.73;12.57;;;;;;;;;;5113611;28;20631;-84
2021/11/15 10:49:40;;;;;;;16.95;10.15;;;;;;;;;;5113685;28;20199;-83
2021/11/15 10:52:11;;;;;;;18.17;12.25;;;;;;;;;;5113353;28;20214;-83
2021/11/15 10:54:47;;;;;;;18.23;11.57;;;;;;;;;;5114063;28;20207;-83
2021/11/15 10:57:23;;;;;;;20.52;12.05;;;;;;;;;;5113244;28;20221;-84
2021/11/15 11:00:23;;;;;;;24.25;11.23;;;7.50;99.90;;;;;;5111967;28;20206;-84
2021/11/15 11:02:52;;;;;;;18.20;12.00;;;;;;;;;;5112999;28;20748;-83
2021/11/15 11:05:21;;;;;;;17.60;10.57;;;;;;;;;;5112811;28;20565;-84
2021/11/15 11:07:51;;;;;;;19.65;11.50;;;7.60;99.90;;;;;;5113659;28;20648;-83
2021/11/15 11:10:21;;;;;;;15.80;11.82;;;7.70;99.90;;;;;;5113418;28;20262;-83
2021/11/15 11:12:57;;;;;;;17.20;11.10;;;7.70;99.90;;;;;;5113165;28;20246;-84
2021/11/15 11:15:28;;;;;;;21.63;12.48;;;;;;;;;;5103633;28;20616;-83
2021/11/15 11:18:03;;;;;;;19.93;11.70;;;;;;;;;;5099390;28;20209;-82
2021/11/15 11:20:37;;;;;;;20.50;12.50;;;;;;;;;;5091316;28;20625;-83
2021/11/15 11:23:33;;;;;;;14.55;11.23;;;7.60;99.90;;;;;;5103799;27;20190;-82
2021/11/15 11:26:11;;;;;;;21.20;13.40;;;7.40;99.90;;;;;;5112472;28;20199;-83
2021/11/15 11:28:39;;;;;;;17.45;11.52;;;7.50;99.90;;;;;;5112994;28;20206;-83
2021/11/15 11:31:10;;;;;;;13.40;10.13;;;7.50;99.90;;;;;;5112880;28;20201;-82
2021/11/15 11:33:37;;;;;;;18.05;11.98;;;;;;;;;;5099781;28;20663;-83
2021/11/15 11:36:09;;;;;;;24.73;14.90;;;7.30;99.90;;;;;;5092281;28;20614;-83
2021/11/15 11:38:39;;;;;;;18.00;12.27;;;7.30;99.90;;;;;;5091546;28;21226;-83
2021/11/15 11:41:06;;;;;;;15.32;11.07;;;;;;;;;;5096639;28;20730;-82
2021/11/15 11:43:36;;;;;;;15.73;11.53;;;7.50;99.90;;;;;;5092317;28;20291;-83
2021/11/15 11:46:04;;;;;;;20.70;11.17;;;7.50;99.90;;;;;;5092383;28;20625;-83
2021/11/15 11:48:34;;;;;;;13.00;10.17;;;;;;;;;;5092093;28;20625;-83
2021/11/15 11:51:02;;;;;;;15.52;11.00;;;;;;;;;;5091423;28;20648;-81
2021/11/15 11:53:33;;;;;;;15.65;11.18;;;;;;;;;;5091550;28;20219;-82
2021/11/15 11:56:14;;;;;;;13.83;10.23;;;;;;;;;;5092052;28;20203;-82
2021/11/15 11:58:47;;;;;;;17.58;11.30;;;;;;;;;;5091919;28;20981;-82
2021/11/15 12:01:18;;;;;;;15.00;10.32;;;7.60;99.90;;;;;;5091658;28;20195;-82
2021/11/15 12:04:00;;;;;;;22.33;11.88;;;;;;;;;;5091881;28;20213;-82
2021/11/15 12:06:31;;;;;;;19.37;11.77;;;7.50;99.90;;;;;;5091426;28;20199;-82
2021/11/15 12:08:59;;;;;;;17.38;11.05;;;;;;;;;;5091648;28;20620;-82
2021/11/15 12:11:31;;;;;;;13.10;9.65;;;;;;;;;;5091390;28;20203;-82
2021/11/15 12:13:59;;;;;;;19.25;11.35;;;7.60;99.90;;;;;;5090827;28;20247;-81
2021/11/15 12:17:00;;;;;;;17.88;10.10;;;7.60;99.90;;;;;;5095844;27;20263;-81
2021/11/15 12:19:47;;;;;;;16.92;11.10;;;7.60;99.90;;;;;;5105228;28;20190;-81
2021/11/15 12:22:16;;;;;;;15.57;11.18;;;;;;;;;;5110197;28;20186;-81
2021/11/15 12:24:58;;;;;;;18.37;11.30;;;;;;;;;;5096425;28;20286;-82
2021/11/15 12:27:39;;;;;;;19.75;12.48;;;7.60;99.90;;;;;;5092256;27;21047;-82
2021/11/15 12:30:11;;;;;;;18.10;12.02;;;;;;;;;;5091146;28;20201;-82
2021/11/15 12:32:38;;;;;;;15.18;10.68;;;;;;;;;;5095373;28;20221;-82
2021/11/15 12:35:06;;;;;;;16.52;12.13;;;;;;;;;;5092930;28;20227;-82
2021/11/15 12:37:34;;;;;;;20.40;12.45;;;;;;;;;;5090133;28;20233;-82
2021/11/15 12:40:01;;;;;;;24.35;13.15;;;;;;;;;;5090962;28;20279;-83
2021/11/15 12:42:30;;;;;;;15.60;11.60;;;7.60;99.90;;;;;;5113328;27;20221;-84
2021/11/15 12:45:17;;;;;;;19.77;11.52;;;7.40;99.90;;;;;;5112130;27;20661;-83
2021/11/15 12:47:46;;;;;;;21.45;14.02;;;7.50;99.90;;;;;;5117844;27;20206;-83
2021/11/15 12:50:19;;;;;;;20.80;13.07;;;7.50;99.90;;;;;;5127869;27;20208;-83
2021/11/15 12:52:53;;;;;;;18.37;13.53;;;7.50;99.90;;;;;;5116921;27;20264;-82
2021/11/15 12:55:21;;;;;;;22.92;12.95;;;7.60;99.90;;;;;;5126752;27;20615;-82
2021/11/15 12:57:51;;;;;;;21.23;13.50;;;7.50;99.90;;;;;;5114401;27;20277;-81
2021/11/15 13:00:27;;;;;;;22.63;13.87;;;7.50;99.90;;;;;;5126404;27;20617;-83
2021/11/15 13:02:56;;;;;;;16.10;13.33;;;7.30;99.90;;;;;;5121341;27;20677;-83
2021/11/15 13:05:26;;;;;;;20.65;12.27;;;7.30;99.90;;;;;;5124098;27;21169;-83
2021/11/15 13:07:55;;;;;;;28.70;12.73;;;7.50;99.90;;;;;;5104533;27;20214;-82
2021/11/15 13:10:23;;;;;;;21.83;12.63;;;;;;;;;;5110029;28;20617;-82
2021/11/15 13:12:50;;;;;;;29.40;12.70;;;;;;;;;;5110841;28;21283;-82
2021/11/15 13:15:17;;;;;;;25.37;12.57;;;7.70;99.90;;;;;;5091625;28;20203;-83
2021/11/15 13:17:46;;;;;;;17.40;12.50;;;7.50;99.90;;;;;;5090699;28;20720;-83
2021/11/15 13:20:13;;;;;;;19.88;12.82;;;;;;;;;;5090296;28;20627;-83
2021/11/15 13:22:42;;;;;;;20.47;12.93;;;7.50;99.90;;;;;;5090451;28;20223;-83
2021/11/15 13:25:11;;;;;;;22.60;13.73;;;7.40;99.90;;;;;;5108370;28;21024;-85
2021/11/15 13:27:38;;;;;;;19.53;14.00;;;;;;;;;;5111060;28;20647;-83
2021/11/15 13:30:11;;;;;;;23.15;12.13;;;7.50;99.90;;;;;;5110992;28;20673;-82
2021/11/15 13:32:40;;;;;;;23.85;13.70;;;;;;;;;;5106086;28;20207;-83
2021/11/15 13:35:09;;;;;;;20.07;13.83;;;7.50;99.90;;;;;;5107472;28;20555;-83
2021/11/15 13:37:36;;;;;;;21.20;13.47;;;;;;;;;;5110725;28;20674;-83
2021/11/15 13:40:05;;;;;;;18.98;12.07;;;;;;;;;;5110729;28;20710;-83
2021/11/15 13:42:32;;;;;;;21.50;13.27;;;;;;;;;;5092934;28;20246;-82
2021/11/15 13:44:59;;;;;;;18.23;13.23;;;;;;;;;;5106175;28;20199;-83
2021/11/15 13:47:26;;;;;;;21.43;12.80;;;;;;;;;;5100452;28;20714;-82
2021/11/15 13:49:54;;;;;;;24.23;12.77;;;;;;;;;;5110044;28;20638;-82
2021/11/15 13:52:24;;;;;;;23.88;13.50;;;;;;;;;;5110629;28;20608;-83
2021/11/15 13:54:51;;;;;;;20.60;12.45;;;;;;;;;;5110092;28;20662;-82
2021/11/15 13:57:20;;;;;;;18.75;12.40;;;;;;;;;;5110272;28;20289;-83